Time;durP1;ratioP1;P1;durP2;ratioP2;P2;SDS_P1;SDS_P2;PMS_P1;PMS_P2;Temp;Humidity;BMP_temperature;BMP_pressure;BME280_temperature;BME280_humidity;BME280_pressure;Samples;Min_cycle;Max_cycle;Signal;HPM_P1;HPM_P2
2023/10/16 00:01:10;;;;;;;8.77;8.17;;;10.40;19.60;;;;;;6124600;23;20382;-62
2023/10/16 00:03:38;;;;;;;7.70;7.10;;;10.20;20.70;;;;;;6124451;23;20370;-62
2023/10/16 00:06:05;;;;;;;7.30;6.90;;;10.40;20.20;;;;;;6124109;23;20378;-62
2023/10/16 00:08:33;;;;;;;9.47;8.67;;;10.60;20.00;;;;;;6124540;23;20421;-65
2023/10/16 00:11:01;;;;;;;7.93;7.43;;;10.70;19.80;;;;;;6124066;23;20473;-65
2023/10/16 00:13:27;;;;;;;7.10;6.70;;;10.90;19.20;;;;;;6123711;23;20386;-65
2023/10/16 00:15:57;;;;;;;5.60;5.30;;;11.00;18.60;;;;;;6124188;23;20418;-65
2023/10/16 00:18:24;;;;;;;6.97;6.47;;;11.10;18.10;;;;;;6124810;23;20393;-65
2023/10/16 00:20:52;;;;;;;6.57;6.00;;;11.10;17.80;;;;;;6123867;23;20789;-65
2023/10/16 00:23:24;;;;;;;6.70;6.40;;;11.10;18.00;;;;;;6123839;23;20452;-65
2023/10/16 00:25:50;;;;;;;6.17;5.87;;;11.10;17.90;;;;;;6124004;23;20933;-65
2023/10/16 00:28:20;;;;;;;5.97;5.67;;;11.20;18.30;;;;;;6124805;23;20386;-65
2023/10/16 00:30:47;;;;;;;7.10;6.70;;;11.20;17.60;;;;;;6124379;23;20390;-65
2023/10/16 00:33:13;;;;;;;6.20;5.83;;;11.20;17.40;;;;;;6124297;23;20385;-65
2023/10/16 00:35:39;;;;;;;6.50;6.10;;;11.20;17.30;;;;;;6124234;23;20452;-65
2023/10/16 00:38:12;;;;;;;6.43;6.03;;;11.10;17.20;;;;;;6124102;23;20418;-65
2023/10/16 00:40:40;;;;;;;7.53;5.50;;;11.20;17.10;;;;;;6124654;23;20377;-65
2023/10/16 00:43:17;;;;;;;5.80;5.50;;;11.20;17.20;;;;;;6123703;23;20417;-65
2023/10/16 00:45:47;;;;;;;6.13;5.73;;;11.20;17.10;;;;;;6124517;23;20378;-64
2023/10/16 00:48:17;;;;;;;5.53;5.27;;;11.10;17.20;;;;;;6123662;23;20704;-64
2023/10/16 00:50:45;;;;;;;6.00;5.60;;;11.10;17.40;;;;;;6123848;23;20392;-65
2023/10/16 00:53:15;;;;;;;4.80;4.50;;;11.00;17.70;;;;;;6123900;23;20393;-65
2023/10/16 00:55:41;;;;;;;5.93;5.53;;;11.00;17.20;;;;;;6123453;23;20501;-65
2023/10/16 00:58:08;;;;;;;5.20;5.00;;;11.00;17.70;;;;;;6123218;23;20428;-65
2023/10/16 01:00:38;;;;;;;5.27;4.90;;;11.00;17.40;;;;;;6124067;23;20524;-65
2023/10/16 01:03:05;;;;;;;5.20;4.90;;;11.10;17.50;;;;;;6123448;23;20429;-65
2023/10/16 01:05:39;;;;;;;5.73;5.40;;;11.10;17.40;;;;;;6124028;23;20394;-65
2023/10/16 01:08:07;;;;;;;5.83;5.57;;;11.10;17.20;;;;;;6124141;23;20365;-65
2023/10/16 01:10:34;;;;;;;5.20;5.00;;;11.10;17.20;;;;;;6124279;23;20396;-65
2023/10/16 01:13:03;;;;;;;5.80;5.50;;;11.10;17.20;;;;;;6123440;23;20862;-65
2023/10/16 01:15:29;;;;;;;5.57;5.30;;;11.10;17.30;;;;;;6124185;23;20425;-65
2023/10/16 01:17:54;;;;;;;5.23;5.03;;;11.00;17.50;;;;;;6123685;23;20390;-65
2023/10/16 01:20:20;;;;;;;6.20;5.80;;;11.00;17.60;;;;;;6123605;23;20162;-64
2023/10/16 01:22:47;;;;;;;6.33;5.83;;;11.00;17.30;;;;;;6125774;23;20154;-64
2023/10/16 01:25:14;;;;;;;6.07;5.67;;;11.00;17.50;;;;;;6128490;23;20185;-64
2023/10/16 01:27:42;;;;;;;5.87;5.67;;;11.00;17.40;;;;;;6128661;23;20396;-64
2023/10/16 01:30:09;;;;;;;6.10;5.80;;;11.00;17.50;;;;;;6128642;23;20385;-65
2023/10/16 01:32:35;;;;;;;6.20;5.90;;;11.00;17.40;;;;;;6129013;23;20381;-65
2023/10/16 01:35:01;;;;;;;5.93;5.63;;;11.00;17.50;;;;;;6127668;23;20416;-64
2023/10/16 01:37:27;;;;;;;5.33;5.13;;;11.00;17.50;;;;;;6128401;23;20389;-64
2023/10/16 01:40:11;;;;;;;6.87;6.40;;;11.00;17.60;;;;;;6128003;23;20385;-64
2023/10/16 01:42:37;;;;;;;5.77;5.50;;;11.00;17.40;;;;;;6128867;23;20365;-64
2023/10/16 01:45:04;;;;;;;6.40;6.10;;;11.00;17.50;;;;;;6128283;23;20862;-64
2023/10/16 01:47:33;;;;;;;6.30;5.80;;;11.00;17.00;;;;;;6128324;23;20549;-64
2023/10/16 01:50:01;;;;;;;6.10;5.80;;;11.00;17.20;;;;;;6128129;23;20388;-64
2023/10/16 01:52:26;;;;;;;5.57;5.27;;;10.80;17.40;;;;;;6128769;23;20854;-64
2023/10/16 01:54:53;;;;;;;6.27;5.97;;;10.40;17.40;;;;;;6128341;23;20428;-64
2023/10/16 01:57:21;;;;;;;6.10;5.80;;;10.10;18.30;;;;;;6127775;23;20164;-64
2023/10/16 01:59:51;;;;;;;6.70;6.40;;;10.00;18.70;;;;;;6128716;23;20869;-64
2023/10/16 02:02:18;;;;;;;5.73;5.43;;;9.60;20.10;;;;;;6127955;23;20376;-64
2023/10/16 02:04:43;;;;;;;6.50;6.10;;;9.50;20.60;;;;;;6128726;23;20412;-64
2023/10/16 02:07:10;;;;;;;7.00;6.70;;;9.50;20.80;;;;;;6127245;23;20389;-64
2023/10/16 02:09:39;;;;;;;6.93;6.53;;;9.30;21.90;;;;;;6154491;23;20404;-65
2023/10/16 02:12:10;;;;;;;6.80;6.40;;;9.40;21.70;;;;;;6128010;23;20391;-64
2023/10/16 02:17:58;;;;;;;7.50;7.10;;;9.70;21.40;;;;;;6154490;23;20341;-64
2023/10/16 02:20:26;;;;;;;7.40;7.00;;;9.60;21.90;;;;;;6128249;23;20393;-64
2023/10/16 02:22:53;;;;;;;8.00;7.60;;;9.80;21.80;;;;;;6127848;23;20153;-65
2023/10/16 02:25:19;;;;;;;9.00;8.50;;;10.00;20.60;;;;;;6128311;23;20881;-65
2023/10/16 02:27:45;;;;;;;8.00;7.40;;;10.10;20.20;;;;;;6127947;23;20385;-65
2023/10/16 02:30:28;;;;;;;8.37;7.87;;;10.10;20.40;;;;;;6128527;23;20172;-65
2023/10/16 02:32:59;;;;;;;8.70;8.20;;;10.10;20.50;;;;;;6128175;23;20404;-64
2023/10/16 02:35:25;;;;;;;8.27;7.77;;;10.20;20.10;;;;;;6127882;23;20513;-65
2023/10/16 02:37:53;;;;;;;7.80;7.40;;;10.40;19.70;;;;;;6127391;23;20789;-65
2023/10/16 02:40:20;;;;;;;8.23;7.73;;;10.40;19.40;;;;;;6128471;23;20487;-65
2023/10/16 02:42:52;;;;;;;7.57;7.07;;;10.50;19.00;;;;;;6128424;23;20369;-65
2023/10/16 02:45:26;;;;;;;8.23;7.73;;;10.60;18.90;;;;;;6128204;23;20387;-65
2023/10/16 02:47:53;;;;;;;9.10;8.60;;;10.60;18.80;;;;;;6154633;23;20663;-65
2023/10/16 02:50:19;;;;;;;8.20;7.80;;;10.60;18.80;;;;;;6128018;23;20717;-65
2023/10/16 02:52:47;;;;;;;8.90;8.30;;;10.60;18.80;;;;;;6127971;23;20735;-65
2023/10/16 02:55:15;;;;;;;9.63;8.70;;;10.50;18.90;;;;;;6127416;23;21223;-65
2023/10/16 02:57:41;;;;;;;9.10;8.40;;;10.50;19.30;;;;;;6127821;23;20424;-65
2023/10/16 03:00:34;;;;;;;8.67;8.27;;;10.50;19.10;;;;;;6128183;23;20388;-65
2023/10/16 03:02:59;;;;;;;8.37;7.77;;;10.50;19.30;;;;;;6128227;23;20668;-65
2023/10/16 03:05:28;;;;;;;8.00;7.40;;;10.40;19.40;;;;;;6128762;23;20395;-65
2023/10/16 03:07:54;;;;;;;9.90;9.37;;;10.30;19.70;;;;;;6128113;23;20157;-65
2023/10/16 03:10:24;;;;;;;8.70;8.30;;;10.30;19.70;;;;;;6128107;23;20385;-66
2023/10/16 03:12:50;;;;;;;8.87;8.27;;;10.30;19.60;;;;;;6153324;23;20464;-65
2023/10/16 03:15:29;;;;;;;9.50;9.00;;;10.40;19.60;;;;;;6128227;23;20801;-65
2023/10/16 03:17:55;;;;;;;10.10;9.47;;;10.40;19.60;;;;;;6127971;23;20430;-66
2023/10/16 03:20:23;;;;;;;10.00;9.30;;;10.10;20.30;;;;;;6127889;23;20385;-65
2023/10/16 03:22:53;;;;;;;9.80;9.27;;;9.90;21.30;;;;;;6128547;23;20153;-65
2023/10/16 03:25:28;;;;;;;9.87;9.17;;;9.80;21.90;;;;;;6128348;23;20382;-65
2023/10/16 03:27:57;;;;;;;8.93;8.37;;;9.90;21.70;;;;;;6154168;23;20384;-65
2023/10/16 03:30:27;;;;;;;10.30;9.40;;;9.90;21.40;;;;;;6127936;23;20409;-65
2023/10/16 03:32:55;;;;;;;9.50;8.97;;;9.70;21.90;;;;;;6127918;23;20777;-65
2023/10/16 03:35:25;;;;;;;9.33;8.73;;;9.50;22.70;;;;;;6128346;23;20491;-65
2023/10/16 03:37:55;;;;;;;10.10;9.60;;;9.20;23.40;;;;;;6127598;23;20384;-64
2023/10/16 03:40:24;;;;;;;9.53;8.73;;;9.20;23.40;;;;;;6128335;23;20393;-65
2023/10/16 03:42:54;;;;;;;10.40;9.80;;;9.00;23.30;;;;;;6127690;23;20449;-65
2023/10/16 03:45:23;;;;;;;10.40;9.70;;;9.00;23.50;;;;;;6128395;23;21030;-65
2023/10/16 03:47:52;;;;;;;9.37;8.83;;;9.10;23.40;;;;;;6127889;23;20981;-65
2023/10/16 03:50:24;;;;;;;10.17;9.50;;;9.10;23.40;;;;;;6129725;23;20399;-65
2023/10/16 03:52:56;;;;;;;9.73;9.07;;;9.00;23.30;;;;;;6129517;23;20388;-65
2023/10/16 03:55:25;;;;;;;20.47;10.13;;;8.80;23.70;;;;;;6129839;23;20458;-65
2023/10/16 03:57:52;;;;;;;9.30;8.73;;;8.60;24.50;;;;;;6129847;23;20392;-65
2023/10/16 04:00:18;;;;;;;9.70;9.10;;;8.60;24.50;;;;;;6129896;23;20387;-64
2023/10/16 04:02:44;;;;;;;9.77;9.17;;;8.70;25.10;;;;;;6130252;23;20381;-65
2023/10/16 04:07:54;;;;;;;9.57;9.07;;;8.50;25.50;;;;;;6156241;23;20179;-65
2023/10/16 04:10:29;;;;;;;11.07;10.17;;;8.70;25.00;;;;;;6129626;23;20385;-65
2023/10/16 04:12:58;;;;;;;10.60;9.67;;;8.90;24.40;;;;;;6129171;23;20211;-65
2023/10/16 04:31:45;;;;;;;10.73;10.03;;;9.40;22.90;;;;;;6165699;23;20388;-65
2023/10/16 04:53:09;;;;;;;9.40;8.83;;;9.70;21.40;;;;;;6164961;23;20369;-62
2023/10/16 05:01:19;;;;;;;10.90;10.20;;;9.60;21.30;;;;;;6164837;23;20453;-62
2023/10/16 05:11:57;;;;;;;11.13;10.30;;;9.20;22.70;;;;;;6154722;23;20392;-66
2023/10/16 05:14:28;;;;;;;11.57;10.93;;;9.20;22.60;;;;;;6154184;23;20448;-66
2023/10/16 06:14:13;;;;;;;10.80;9.97;;;9.20;23.60;;;;;;6153096;23;20391;-61
2023/10/16 06:16:46;;;;;;;10.20;9.40;;;9.30;23.50;;;;;;6127006;23;20401;-62
2023/10/16 06:19:15;;;;;;;10.13;9.53;;;9.50;23.60;;;;;;6153322;23;20416;-61
2023/10/16 06:21:46;;;;;;;10.17;9.50;;;9.60;22.30;;;;;;6127433;23;20785;-61
2023/10/16 06:24:32;;;;;;;11.03;10.23;;;9.60;21.70;;;;;;6122159;23;20476;-63
2023/10/16 06:27:00;;;;;;;9.63;9.03;;;9.70;22.00;;;;;;6121780;23;20394;-61
2023/10/16 06:29:40;;;;;;;10.47;9.50;;;9.70;21.90;;;;;;6122520;23;20393;-62
2023/10/16 06:32:19;;;;;;;10.13;9.47;;;9.80;21.30;;;;;;6123087;23;20390;-65
2023/10/16 06:35:00;;;;;;;11.70;10.67;;;9.60;20.70;;;;;;6121927;23;20931;-65
2023/10/16 06:37:28;;;;;;;11.00;10.20;;;9.40;20.90;;;;;;6120847;23;20875;-65
2023/10/16 06:39:57;;;;;;;10.40;9.70;;;9.30;21.50;;;;;;6122381;23;20744;-65
2023/10/16 06:42:22;;;;;;;12.10;11.03;;;9.10;21.60;;;;;;6122975;23;20768;-65
2023/10/16 06:44:55;;;;;;;10.20;9.50;;;8.90;22.30;;;;;;6122865;23;20381;-61
2023/10/16 06:47:35;;;;;;;11.00;10.23;;;8.70;22.70;;;;;;6120710;23;20165;-61
2023/10/16 06:52:55;;;;;;;10.57;9.97;;;8.50;23.70;;;;;;6132879;23;20367;-61
2023/10/16 06:55:22;;;;;;;10.13;9.37;;;8.70;24.60;;;;;;6121383;23;20420;-61
2023/10/16 06:57:48;;;;;;;10.57;9.77;;;8.90;23.60;;;;;;6121429;23;20386;-61
2023/10/16 07:00:27;;;;;;;10.47;9.77;;;9.20;23.40;;;;;;6123227;23;20424;-61
2023/10/16 07:02:54;;;;;;;9.80;9.20;;;9.00;23.00;;;;;;6120403;23;20365;-65
2023/10/16 07:05:24;;;;;;;10.77;10.17;;;9.20;24.30;;;;;;6122927;23;20433;-65
2023/10/16 07:07:56;;;;;;;11.27;10.40;;;9.30;23.50;;;;;;6120992;23;20401;-65
2023/10/16 07:10:22;;;;;;;12.30;11.40;;;9.20;22.40;;;;;;6122556;23;20704;-65
2023/10/16 07:12:58;;;;;;;11.67;10.77;;;8.80;23.10;;;;;;6123297;23;20382;-65
2023/10/16 07:15:29;;;;;;;11.73;10.93;;;8.60;23.00;;;;;;6099098;23;20461;-65
2023/10/16 07:17:56;;;;;;;11.40;10.60;;;8.80;23.20;;;;;;6122780;23;20435;-65
2023/10/16 07:20:30;;;;;;;11.03;10.37;;;9.00;22.80;;;;;;6123312;23;20459;-65
2023/10/16 07:22:59;;;;;;;11.53;10.73;;;9.20;22.40;;;;;;6127390;23;20403;-65
2023/10/16 07:25:29;;;;;;;11.13;10.33;;;9.40;21.80;;;;;;6129867;23;20385;-62
2023/10/16 07:27:58;;;;;;;11.77;10.77;;;9.60;21.50;;;;;;6129548;23;20377;-65
2023/10/16 07:30:25;;;;;;;12.40;11.40;;;9.70;20.90;;;;;;6130155;23;20392;-65
2023/10/16 07:32:51;;;;;;;10.70;9.90;;;9.40;21.70;;;;;;6129728;23;20377;-65
2023/10/16 07:35:21;;;;;;;12.50;11.70;;;9.40;21.30;;;;;;6129891;23;20527;-65
2023/10/16 07:37:53;;;;;;;10.93;10.27;;;9.40;21.70;;;;;;6155671;23;20369;-64
2023/10/16 07:40:25;;;;;;;11.57;10.83;;;9.20;21.90;;;;;;6129648;23;20818;-64
2023/10/16 07:42:52;;;;;;;11.93;10.83;;;9.10;22.70;;;;;;6129826;23;20391;-64
2023/10/16 07:45:19;;;;;;;12.37;11.17;;;9.00;23.30;;;;;;6129592;23;20439;-64
2023/10/16 07:47:48;;;;;;;11.30;10.60;;;9.20;25.00;;;;;;6129758;23;20399;-64
2023/10/16 07:50:15;;;;;;;11.77;10.73;;;9.40;24.90;;;;;;6129803;23;20730;-64
2023/10/16 07:52:42;;;;;;;10.83;10.13;;;9.50;23.60;;;;;;6129965;23;20830;-65
2023/10/16 07:55:17;;;;;;;12.60;11.50;;;9.30;22.60;;;;;;6129215;23;20486;-64
2023/10/16 07:57:44;;;;;;;10.10;9.53;;;9.10;22.90;;;;;;6129648;23;20373;-64
2023/10/16 08:00:14;;;;;;;10.73;10.13;;;9.10;22.90;;;;;;6129566;23;20380;-62
2023/10/16 08:02:44;;;;;;;11.17;10.30;;;9.10;23.20;;;;;;6130185;23;20680;-62
2023/10/16 08:05:15;;;;;;;12.23;11.43;;;9.10;23.30;;;;;;6129729;23;20385;-62
2023/10/16 08:07:47;;;;;;;11.00;10.40;;;9.10;23.30;;;;;;6129290;23;20384;-63
2023/10/16 08:13:11;;;;;;;11.77;11.17;;;9.10;23.40;;;;;;6155874;23;20403;-64
2023/10/16 08:15:37;;;;;;;11.67;10.87;;;9.10;23.40;;;;;;6129139;23;20426;-65
2023/10/16 08:18:07;;;;;;;12.20;11.40;;;9.20;23.40;;;;;;6129138;23;20512;-65
2023/10/16 08:20:49;;;;;;;12.50;11.50;;;9.20;23.40;;;;;;6129478;23;20377;-65
2023/10/16 08:23:15;;;;;;;11.23;10.57;;;9.30;22.90;;;;;;6123543;23;20428;-65
2023/10/16 08:25:41;;;;;;;11.77;11.07;;;9.10;23.40;;;;;;6124743;23;20389;-65
2023/10/16 08:28:44;;;;;;;11.67;10.87;;;9.10;23.40;;;;;;6124490;23;20440;-65
2023/10/16 08:31:10;;;;;;;12.00;11.30;;;9.20;23.30;;;;;;6126072;23;20397;-65
2023/10/16 08:33:35;;;;;;;12.07;11.27;;;9.10;23.30;;;;;;6124589;23;20377;-65
2023/10/16 08:36:04;;;;;;;11.73;11.13;;;9.10;23.30;;;;;;6125752;23;20425;-65
2023/10/16 08:38:32;;;;;;;11.73;10.70;;;9.10;23.80;;;;;;6124661;23;20158;-65
2023/10/16 08:41:07;;;;;;;11.67;10.50;;;9.40;23.50;;;;;;6124526;23;20436;-66
2023/10/16 08:46:18;;;;;;;15.30;13.80;;;9.70;22.50;;;;;;6125607;23;20377;-66
2023/10/16 08:48:46;;;;;;;12.90;11.90;;;9.70;22.40;;;;;;6124478;23;20441;-65
2023/10/16 08:51:13;;;;;;;12.17;11.10;;;9.60;22.50;;;;;;6124144;23;20736;-65
2023/10/16 08:53:42;;;;;;;11.10;10.40;;;9.60;22.60;;;;;;6124058;23;20382;-65
2023/10/16 08:56:07;;;;;;;11.37;10.30;;;9.70;22.40;;;;;;6124131;23;21134;-65
2023/10/16 08:58:41;;;;;;;11.60;10.93;;;9.80;22.10;;;;;;6126011;23;20370;-64
2023/10/16 09:01:07;;;;;;;11.70;11.00;;;9.80;22.40;;;;;;6124188;23;20241;-64
2023/10/16 09:03:54;;;;;;;12.70;11.90;;;9.90;22.70;;;;;;6124393;23;20396;-64
2023/10/16 09:06:23;;;;;;;13.20;12.30;;;10.00;21.20;;;;;;6124288;23;20382;-64
2023/10/16 09:08:54;;;;;;;12.67;11.97;;;10.10;21.10;;;;;;6124127;23;20762;-64
2023/10/16 09:11:20;;;;;;;12.57;11.97;;;10.10;20.80;;;;;;6124137;23;20778;-64
2023/10/16 09:13:52;;;;;;;14.93;14.13;;;10.20;21.10;;;;;;6123844;23;20394;-64
2023/10/16 09:16:30;;;;;;;13.80;12.67;;;10.40;20.50;;;;;;6123928;23;20495;-64
2023/10/16 09:18:58;;;;;;;13.73;12.73;;;10.50;20.60;;;;;;6123478;23;20452;-64
2023/10/16 09:21:28;;;;;;;13.20;12.30;;;10.80;20.60;;;;;;6123975;23;20386;-64
2023/10/16 09:24:00;;;;;;;29.77;26.87;;;10.80;19.70;;;;;;6123998;23;20905;-64
2023/10/16 09:26:28;;;;;;;13.90;12.80;;;10.80;19.60;;;;;;6123853;23;20386;-65
2023/10/16 09:29:15;;;;;;;16.83;15.53;;;10.70;19.80;;;;;;6124073;23;20405;-65
2023/10/16 09:31:45;;;;;;;11.43;10.53;;;10.70;19.60;;;;;;6123587;23;20718;-65
2023/10/16 09:34:17;;;;;;;11.23;10.43;;;10.70;20.00;;;;;;6123616;23;20417;-65
2023/10/16 09:37:15;;;;;;;15.83;14.73;;;10.90;19.70;;;;;;6123810;23;20381;-65
2023/10/16 09:39:46;;;;;;;59.63;49.43;;;11.00;19.00;;;;;;6125706;23;20485;-66
2023/10/16 09:42:12;;;;;;;54.33;43.93;;;10.90;19.10;;;;;;6124148;23;20714;-65
2023/10/16 09:44:44;;;;;;;20.13;18.17;;;10.90;19.00;;;;;;6123657;23;20476;-65
2023/10/16 09:47:26;;;;;;;32.70;29.23;;;11.00;19.00;;;;;;6122543;23;20444;-65
2023/10/16 09:50:00;;;;;;;17.20;15.70;;;10.80;18.70;;;;;;6123089;23;20396;-65
2023/10/16 09:52:31;;;;;;;31.33;28.10;;;10.80;18.80;;;;;;6123243;23;20502;-65
2023/10/16 09:54:59;;;;;;;28.43;24.97;;;11.00;19.20;;;;;;6123284;23;20455;-65
2023/10/16 09:57:30;;;;;;;14.70;13.50;;;10.90;18.80;;;;;;6122743;23;20412;-65
2023/10/16 10:00:01;;;;;;;15.73;14.43;;;11.00;19.00;;;;;;6123095;23;20385;-65
2023/10/16 10:02:35;;;;;;;12.43;11.73;;;11.20;19.00;;;;;;6123588;23;20779;-65
2023/10/16 10:05:09;;;;;;;11.20;10.60;;;11.40;18.90;;;;;;6122972;23;20388;-65
2023/10/16 10:07:47;;;;;;;11.50;10.60;;;11.60;18.20;;;;;;6123499;23;20823;-65
2023/10/16 10:13:16;;;;;;;10.20;9.70;;;11.60;17.40;;;;;;6123465;23;20469;-65
2023/10/16 10:15:48;;;;;;;11.27;10.47;;;11.70;17.40;;;;;;6122616;23;20520;-65
2023/10/16 10:21:11;;;;;;;11.50;10.80;;;11.90;16.20;;;;;;6123685;23;20883;-65
2023/10/16 10:23:37;;;;;;;11.90;11.13;;;11.90;16.20;;;;;;6121791;23;20832;-65
2023/10/16 10:26:07;;;;;;;10.43;9.93;;;12.00;16.20;;;;;;6121306;23;20855;-65
2023/10/16 10:28:36;;;;;;;10.80;10.30;;;11.90;16.80;;;;;;6121749;23;20717;-65
2023/10/16 10:31:05;;;;;;;10.43;9.93;;;11.90;16.80;;;;;;6122047;23;20390;-64
2023/10/16 10:33:38;;;;;;;10.03;9.57;;;12.00;16.70;;;;;;6121764;23;20773;-65
2023/10/16 10:36:38;;;;;;;9.67;9.17;;;12.20;16.40;;;;;;6121438;23;20425;-65
2023/10/16 10:39:38;;;;;;;9.60;9.10;;;12.50;15.60;;;;;;6121892;23;20457;-65
2023/10/16 10:42:04;;;;;;;10.17;9.77;;;12.70;15.30;;;;;;6121737;23;20376;-64
2023/10/16 10:44:43;;;;;;;10.20;9.77;;;12.90;14.80;;;;;;6121900;23;20436;-63
2023/10/16 10:47:24;;;;;;;11.10;10.27;;;13.00;14.70;;;;;;6121564;23;20373;-62
2023/10/16 10:49:59;;;;;;;10.00;9.40;;;12.60;15.00;;;;;;6120139;23;20397;-62
2023/10/16 10:52:30;;;;;;;9.97;9.47;;;12.60;15.10;;;;;;6122378;23;20400;-64
2023/10/16 10:55:00;;;;;;;9.27;8.77;;;12.50;14.60;;;;;;6121073;23;20422;-62
2023/10/16 10:57:27;;;;;;;10.23;9.43;;;12.50;15.20;;;;;;6121707;23;20486;-63
2023/10/16 11:00:04;;;;;;;10.57;9.40;;;12.50;15.30;;;;;;6124041;23;20389;-62
2023/10/16 11:04:58;;;;;;;9.30;8.80;;;12.60;14.50;;;;;;6126483;23;20390;-63
2023/10/16 11:07:29;;;;;;;9.83;9.33;;;12.60;13.40;;;;;;6124552;23;20170;-63
2023/10/16 11:09:57;;;;;;;10.50;9.90;;;12.60;13.50;;;;;;6125275;23;20855;-63
2023/10/16 11:12:26;;;;;;;10.77;10.17;;;12.70;13.90;;;;;;6123780;23;20390;-63
2023/10/16 11:14:53;;;;;;;9.93;9.40;;;12.70;13.60;;;;;;6120499;23;20430;-63
2023/10/16 11:17:32;;;;;;;11.60;11.10;;;12.70;13.90;;;;;;6123452;23;20381;-62
2023/10/16 11:20:11;;;;;;;11.50;10.63;;;12.90;14.10;;;;;;6122999;23;20404;-63
2023/10/16 11:22:43;;;;;;;10.33;9.93;;;12.80;14.30;;;;;;6124384;23;20750;-63
2023/10/16 11:25:09;;;;;;;9.83;9.43;;;12.50;13.50;;;;;;6127985;23;20782;-63
2023/10/16 11:27:35;;;;;;;10.60;10.00;;;12.50;13.30;;;;;;6129144;23;20387;-63
2023/10/16 11:30:11;;;;;;;10.07;9.47;;;12.60;14.00;;;;;;6128545;23;20385;-64
2023/10/16 11:32:45;;;;;;;9.27;8.90;;;12.60;14.30;;;;;;6129048;23;20157;-64
2023/10/16 11:35:18;;;;;;;9.80;9.10;;;12.70;14.00;;;;;;6128320;23;20428;-64
2023/10/16 11:37:59;;;;;;;8.90;8.40;;;12.80;13.30;;;;;;6128895;23;20784;-65
2023/10/16 11:40:42;;;;;;;9.40;9.00;;;12.70;13.40;;;;;;6128616;23;20384;-64
2023/10/16 11:43:11;;;;;;;9.63;9.13;;;12.70;13.40;;;;;;6127272;23;20439;-65
2023/10/16 11:45:45;;;;;;;8.07;7.77;;;12.90;13.60;;;;;;6128931;23;20475;-65
2023/10/16 11:50:58;;;;;;;8.53;8.13;;;13.10;12.10;;;;;;6165207;23;20361;-65
2023/10/16 11:53:23;;;;;;;9.27;8.97;;;13.20;12.00;;;;;;6129519;23;20380;-65
2023/10/16 11:55:52;;;;;;;9.17;8.67;;;13.30;11.30;;;;;;6127951;23;20758;-64
2023/10/16 11:58:18;;;;;;;9.20;8.77;;;13.30;10.70;;;;;;6127805;23;20464;-64
2023/10/16 12:00:54;;;;;;;8.53;8.13;;;13.20;10.90;;;;;;6127819;23;20392;-64
2023/10/16 12:03:26;;;;;;;8.40;8.03;;;13.10;10.80;;;;;;6128782;23;20161;-64
2023/10/16 12:05:55;;;;;;;9.17;8.73;;;13.10;11.00;;;;;;6129440;23;20479;-64
2023/10/16 12:08:21;;;;;;;9.27;8.80;;;13.10;10.80;;;;;;6128286;23;20387;-64
2023/10/16 12:10:50;;;;;;;9.10;8.80;;;13.00;10.60;;;;;;6125935;23;20389;-64
2023/10/16 12:13:16;;;;;;;8.83;8.27;;;12.90;12.60;;;;;;6126378;23;20411;-64
2023/10/16 12:15:46;;;;;;;9.23;8.83;;;13.00;12.30;;;;;;6126423;23;20456;-63
2023/10/16 12:18:12;;;;;;;9.73;9.33;;;13.10;14.10;;;;;;6127514;23;20241;-64
2023/10/16 12:20:39;;;;;;;9.53;9.10;;;13.10;12.70;;;;;;6127799;23;20385;-64
2023/10/16 12:23:05;;;;;;;9.87;9.47;;;13.10;11.40;;;;;;6122393;23;20404;-63
2023/10/16 12:25:32;;;;;;;9.40;9.00;;;13.20;11.90;;;;;;6122620;23;20394;-64
2023/10/16 12:27:58;;;;;;;9.63;9.30;;;13.30;13.30;;;;;;6121481;23;20400;-64
2023/10/16 12:30:27;;;;;;;9.13;8.73;;;13.40;12.10;;;;;;6122799;23;20390;-63
2023/10/16 12:32:54;;;;;;;9.60;9.10;;;13.40;11.00;;;;;;6123649;23;20166;-64
2023/10/16 12:35:22;;;;;;;9.37;8.87;;;13.40;11.80;;;;;;6123718;23;20512;-64
2023/10/16 12:37:49;;;;;;;9.93;9.43;;;13.40;11.20;;;;;;6123511;23;20421;-64
2023/10/16 12:43:09;;;;;;;8.67;8.27;;;13.40;11.90;;;;;;6113681;23;20444;-64
2023/10/16 12:45:37;;;;;;;8.53;8.00;;;13.30;11.50;;;;;;6123078;23;20386;-64
2023/10/16 12:48:04;;;;;;;9.20;8.73;;;13.30;12.70;;;;;;6124059;23;20336;-63
2023/10/16 12:50:30;;;;;;;8.60;8.20;;;13.50;13.30;;;;;;6123536;23;20399;-64
2023/10/16 12:52:57;;;;;;;7.80;7.50;;;13.60;12.10;;;;;;6124079;23;20773;-64
2023/10/16 12:55:24;;;;;;;8.53;8.13;;;13.70;11.40;;;;;;6124085;23;20619;-63
2023/10/16 12:57:50;;;;;;;8.90;8.60;;;13.60;10.60;;;;;;6123650;23;20779;-64
2023/10/16 13:00:18;;;;;;;9.07;8.67;;;13.70;11.40;;;;;;6123758;23;20386;-64
2023/10/16 13:02:48;;;;;;;8.50;8.20;;;13.60;10.50;;;;;;6123961;23;20464;-65
2023/10/16 13:05:18;;;;;;;8.90;8.50;;;13.70;10.60;;;;;;6124239;23;20405;-64
2023/10/16 13:07:45;;;;;;;9.10;8.70;;;13.80;10.80;;;;;;6123618;23;20386;-63
2023/10/16 13:10:20;;;;;;;9.43;8.93;;;13.90;10.90;;;;;;6123911;23;20697;-64
2023/10/16 13:12:47;;;;;;;9.10;8.70;;;13.80;9.60;;;;;;6124072;23;20381;-60
2023/10/16 13:15:15;;;;;;;9.37;8.97;;;13.60;10.10;;;;;;6123567;23;20426;-64
2023/10/16 13:17:44;;;;;;;8.53;8.13;;;13.70;11.00;;;;;;6123997;23;20746;-63
2023/10/16 13:20:19;;;;;;;8.23;7.73;;;13.80;9.70;;;;;;6123370;23;20390;-64
2023/10/16 13:22:49;;;;;;;9.27;8.77;;;13.80;10.10;;;;;;6127352;23;20358;-64
2023/10/16 13:25:16;;;;;;;8.00;7.50;;;13.80;8.90;;;;;;6128906;23;20392;-64
2023/10/16 13:27:44;;;;;;;7.67;7.37;;;13.90;10.40;;;;;;6128477;23;20472;-63
2023/10/16 13:30:16;;;;;;;7.90;7.20;;;13.90;8.90;;;;;;6128548;23;20396;-63
2023/10/16 13:32:46;;;;;;;7.67;7.37;;;14.00;8.70;;;;;;6126837;23;20447;-64
2023/10/16 13:35:13;;;;;;;7.80;7.50;;;13.90;7.80;;;;;;6126953;23;20424;-64
2023/10/16 13:37:42;;;;;;;7.90;7.60;;;13.90;7.10;;;;;;6128525;23;20485;-64
2023/10/16 13:40:20;;;;;;;9.23;8.73;;;13.90;8.90;;;;;;6128758;23;20392;-64
2023/10/16 13:42:49;;;;;;;8.97;8.47;;;14.00;7.60;;;;;;6128541;23;20376;-64
2023/10/16 13:45:16;;;;;;;7.77;7.40;;;14.00;8.40;;;;;;6128115;23;20381;-64
2023/10/16 13:47:45;;;;;;;8.23;7.87;;;14.00;8.80;;;;;;6128378;23;20408;-64
2023/10/16 13:50:24;;;;;;;7.27;6.93;;;14.00;8.10;;;;;;6128643;23;20464;-64
2023/10/16 13:52:51;;;;;;;7.83;7.53;;;14.00;8.20;;;;;;6128470;23;20696;-64
2023/10/16 13:55:20;;;;;;;7.67;7.37;;;14.00;7.90;;;;;;6127719;23;20474;-64
2023/10/16 13:57:47;;;;;;;7.80;7.33;;;13.90;9.20;;;;;;6127631;23;20445;-64
2023/10/16 14:00:35;;;;;;;6.27;5.97;;;13.90;7.70;;;;;;6128528;23;20412;-64
2023/10/16 14:03:26;;;;;;;6.80;6.50;;;13.90;7.40;;;;;;6127863;23;20381;-64
2023/10/16 14:05:52;;;;;;;7.17;6.87;;;13.90;7.30;;;;;;6127498;23;20846;-64
2023/10/16 14:08:26;;;;;;;6.97;6.57;;;13.90;7.40;;;;;;6127520;23;20474;-64
2023/10/16 14:10:52;;;;;;;7.10;6.80;;;13.90;7.30;;;;;;6128477;23;20165;-61
2023/10/16 14:13:19;;;;;;;7.10;6.70;;;14.00;7.50;;;;;;6128015;23;20872;-62
2023/10/16 14:15:52;;;;;;;7.40;7.00;;;14.10;8.70;;;;;;6127909;23;20420;-62
2023/10/16 14:18:21;;;;;;;7.40;7.10;;;14.00;7.20;;;;;;6127753;23;20409;-61
2023/10/16 14:20:48;;;;;;;7.47;7.13;;;14.00;7.70;;;;;;6126947;23;20476;-61
2023/10/16 14:23:14;;;;;;;8.07;7.70;;;14.10;8.00;;;;;;6121866;23;20402;-62
2023/10/16 14:25:57;;;;;;;7.67;7.37;;;14.10;7.50;;;;;;6122473;23;20390;-61
2023/10/16 14:31:08;;;;;;;6.43;6.13;;;14.10;7.20;;;;;;6124657;23;20784;-64
2023/10/16 14:33:36;;;;;;;7.50;7.07;;;14.20;7.20;;;;;;6122924;23;20385;-65
2023/10/16 14:36:06;;;;;;;7.77;7.37;;;14.10;6.30;;;;;;6121794;23;20193;-65
2023/10/16 14:38:33;;;;;;;6.87;6.57;;;14.10;6.80;;;;;;6121895;23;20683;-64
2023/10/16 14:41:06;;;;;;;6.70;6.40;;;14.10;6.30;;;;;;6122009;23;20714;-65
2023/10/16 14:43:34;;;;;;;6.20;5.80;;;14.10;7.50;;;;;;6121876;23;20412;-64
2023/10/16 14:46:07;;;;;;;6.50;6.10;;;14.10;6.50;;;;;;6121481;23;20729;-61
2023/10/16 14:48:33;;;;;;;5.60;5.30;;;14.10;6.30;;;;;;6121599;23;20694;-65
2023/10/16 14:50:59;;;;;;;7.47;7.10;;;14.10;6.70;;;;;;6122335;23;20393;-65
2023/10/16 14:53:26;;;;;;;7.30;6.80;;;14.00;6.80;;;;;;6121165;23;20417;-64
2023/10/16 14:55:52;;;;;;;6.47;6.27;;;14.10;7.00;;;;;;6121357;23;20433;-64
2023/10/16 14:58:20;;;;;;;6.83;6.43;;;14.10;7.30;;;;;;6097002;23;20465;-64
2023/10/16 15:00:56;;;;;;;6.10;5.90;;;14.10;6.60;;;;;;6123835;23;20378;-61
2023/10/16 15:03:22;;;;;;;6.53;6.23;;;14.10;6.90;;;;;;6121540;23;20814;-61
2023/10/16 15:05:49;;;;;;;6.77;6.37;;;14.10;7.00;;;;;;6121708;23;20469;-62
2023/10/16 15:08:15;;;;;;;5.50;5.30;;;14.10;7.20;;;;;;6121183;23;20312;-61
2023/10/16 15:10:43;;;;;;;6.73;6.43;;;14.10;6.90;;;;;;6121017;23;20381;-61
2023/10/16 15:13:16;;;;;;;6.70;6.40;;;14.00;6.70;;;;;;6121631;23;20390;-62
2023/10/16 15:15:45;;;;;;;5.47;5.27;;;14.00;6.90;;;;;;6121367;23;20476;-62
2023/10/16 15:18:13;;;;;;;6.20;5.90;;;14.10;6.60;;;;;;6121380;23;20702;-62